International Virtual Aviation Organisation

Russian Federation and Kazakhstan MCD

 

Карточка аэропорта UAAA

Внимание!
Информация на этой странице в стадии наполнения.
Если вы не увидели какой-то информации, или заметили неточность - пожалуйста сообщите нам!
Спасибо!
Команда RU-STAFF
Название аэропортаАлматы
Название аэропорта (англ.)Almaty
Превышение2238 ft. (682.1 m.)
Координаты43°21.072', 77°1.5960000000001'
Высота перехода600
Эшелон переходаFL070
Коды ответчика3501-3517, 3401-3427
Зона ОрВДАлматы РПИ (UAAA)
Данные METARUAAA 240800Z 01002MPS 330V050 3000 BR SCT100 BKN200 M04/M07 Q1025 R23R/91//60 R23L/3///50 NOSIG
Проноз погоды (TAF)UAAA 240502Z 2406/2506 04003G08MPS 5000 BR SCT011 BKN100 TXM03/2409Z TNM11/2501Z TEMPO 2406/2408 1500 BKN005 BKN020 BECMG 2412/2413 16003MPS 3100 BR FU TEMPO 2412/2415 20003G08MPS 1000 TEMPO 2415/2423 VRB02MPS 0600 FZFG VV002 TEMPO 2500/2503 0300 FZFG VV001
NOTAMshow/hide NOTAM
AWOS   TABLE

Информация о ВПП

ВПП Длина ВПП (м.) Покрытие Курс ВПП Частота ILS
05L4500Бетон51109.1
05R4400Асфальтобетон51110.3
23L4400Асфальтобетон231108.1
23R4500Бетон231111.3

Диспетчерские позиции

Позывной Наименование органа УВД Частота
UAAA_APPАлматы-Подход124.8
UAAA_TWRАлматы-Вышка119.4
UAAA_GNDАлматы-Руление121.7
UAAA_R_APPАлматы-Круг120.8



Спутниковое изображение